createdAt,value
2022-12-23T00:01:29.261Z,100256.47
2022-12-23T00:03:59.781Z,100251.25
2022-12-23T00:06:27.097Z,100252.09
2022-12-23T00:08:58.749Z,100236.53
2022-12-23T00:11:26.963Z,100247.78
2022-12-23T00:14:18.206Z,100228.72
2022-12-23T00:16:47.501Z,100227.88
2022-12-23T00:19:14.159Z,100209.69
2022-12-23T00:21:40.800Z,100215.69
2022-12-23T00:24:07.436Z,100207.03
2022-12-23T00:26:34.045Z,100211.38
2022-12-23T00:29:00.674Z,100214.84
2022-12-23T00:31:27.389Z,100229.56
2022-12-23T00:33:56.656Z,100231.31
2022-12-23T00:36:27.588Z,100226.09
2022-12-23T00:39:18.286Z,100251.25
2022-12-23T00:42:03.592Z,100248.66
2022-12-23T00:44:33.448Z,100259.06
2022-12-23T00:47:00.038Z,100255.59
2022-12-23T00:49:45.756Z,100260.78
2022-12-23T00:52:15.840Z,100253.88
2022-12-23T00:54:42.826Z,100259.94
2022-12-23T00:57:09.515Z,100246.06
2022-12-23T00:59:36.130Z,100246.94
2022-12-23T01:02:22.358Z,100254.72
2022-12-23T01:05:07.649Z,100250.38
2022-12-23T01:07:35.171Z,100249.47
2022-12-23T01:10:01.898Z,100259.03
2022-12-23T01:12:28.512Z,100239.97
2022-12-23T01:14:55.314Z,100265.09
2022-12-23T01:17:22.036Z,100252.06
2022-12-23T01:19:48.870Z,100252.06
2022-12-23T01:22:16.267Z,100236.50
2022-12-23T01:24:42.932Z,100237.34
2022-12-23T01:27:09.518Z,100230.38
2022-12-23T01:29:37.059Z,100222.63
2022-12-23T01:32:03.877Z,100239.06
2022-12-23T01:34:36.473Z,100201.03
2022-12-23T01:37:04.350Z,100251.22
2022-12-23T01:39:31.871Z,100245.97
2022-12-23T01:42:17.329Z,100244.25
2022-12-23T01:45:00.666Z,100252.91
2022-12-23T01:47:40.978Z,100252.03
2022-12-23T01:50:37.876Z,100239.94
2022-12-23T01:53:23.014Z,100252.91
2022-12-23T01:55:57.315Z,100250.31
2022-12-23T01:58:33.331Z,100254.66
2022-12-23T02:01:19.939Z,100265.09
2022-12-23T02:03:49.118Z,100259.91
2022-12-23T02:06:43.247Z,100263.41
2022-12-23T02:09:19.163Z,100267.72
2022-12-23T02:12:06.869Z,100265.13
2022-12-23T02:15:34.170Z,100272.94
2022-12-23T02:18:03.285Z,100266.84
2022-12-23T02:20:59.253Z,100265.09
2022-12-23T02:24:04.499Z,100256.44
2022-12-23T02:26:47.657Z,100268.56
2022-12-23T02:29:47.093Z,100267.69
2022-12-23T02:32:30.228Z,100268.56
2022-12-23T02:35:08.463Z,100270.28
2022-12-23T02:37:45.694Z,100274.59
2022-12-23T02:40:28.557Z,100259.84
2022-12-23T02:43:07.401Z,100260.66
2022-12-23T02:45:41.359Z,100272.81
2022-12-23T02:48:16.590Z,100268.47
2022-12-23T02:50:45.859Z,100264.97
2022-12-23T02:53:43.462Z,100264.94
2022-12-23T02:56:12.523Z,100266.72
2022-12-23T02:58:48.970Z,100251.13
2022-12-23T03:01:17.910Z,100250.25
2022-12-23T03:03:47.561Z,100253.72
2022-12-23T03:06:21.920Z,100252.81
2022-12-23T03:08:52.221Z,100260.63
2022-12-23T03:11:19.377Z,100265.84
2022-12-23T03:14:14.466Z,100255.47
2022-12-23T03:17:04.589Z,100238.16
2022-12-23T03:19:35.566Z,100232.06
2022-12-23T03:22:19.837Z,100228.59
2022-12-23T03:25:08.356Z,100240.75
2022-12-23T03:27:43.097Z,100231.25
2022-12-23T03:30:16.497Z,100246.81
2022-12-23T03:32:54.653Z,100253.75
2022-12-23T03:35:30.472Z,100232.13
2022-12-23T03:37:59.567Z,100246.81
2022-12-23T03:40:40.511Z,100226.03
2022-12-23T03:43:12.665Z,100220.78
2022-12-23T03:45:45.244Z,100210.38
2022-12-23T03:48:40.732Z,100222.53
2022-12-23T03:51:33.549Z,100252.84
2022-12-23T03:54:05.309Z,100271.09
2022-12-23T03:56:45.558Z,100282.41
2022-12-23T03:59:17.120Z,100269.38
2022-12-23T04:02:23.149Z,100232.94
2022-12-23T04:05:08.040Z,100237.25
2022-12-23T04:07:43.547Z,100235.50
2022-12-23T04:10:10.940Z,100232.91
2022-12-23T04:12:39.224Z,100237.22
2022-12-23T04:15:12.610Z,100227.69
2022-12-23T04:17:39.833Z,100227.69
2022-12-23T04:20:07.382Z,100219.88
2022-12-23T04:22:35.601Z,100233.72
2022-12-23T04:25:02.927Z,100231.97
2022-12-23T04:27:29.553Z,100226.81
2022-12-23T04:29:56.130Z,100234.59
2022-12-23T04:32:22.756Z,100232.00
2022-12-23T04:34:49.345Z,100238.06
2022-12-23T04:37:15.897Z,100244.16
2022-12-23T04:39:42.919Z,100236.38
2022-12-23T04:42:12.418Z,100246.75
2022-12-23T04:44:38.971Z,100257.19
2022-12-23T04:47:05.579Z,100265.88
2022-12-23T04:49:32.519Z,100266.78
2022-12-23T04:51:59.274Z,100268.50
2022-12-23T04:54:25.988Z,100273.69
2022-12-23T04:56:52.713Z,100272.88
2022-12-23T04:59:19.608Z,100278.03
2022-12-23T05:01:46.610Z,100282.38
2022-12-23T05:04:14.696Z,100291.91
2022-12-23T05:06:41.348Z,100298.84
2022-12-23T05:09:08.278Z,100296.22
2022-12-23T05:11:41.892Z,100255.59
2022-12-23T05:14:10.852Z,100285.00
2022-12-23T05:16:37.924Z,100281.56
2022-12-23T05:19:04.703Z,100298.03
2022-12-23T05:21:31.325Z,100299.69
2022-12-23T05:23:59.696Z,100279.78
2022-12-23T05:26:26.275Z,100278.06
2022-12-23T05:28:53.081Z,100277.22
2022-12-23T23:47:44.629Z,99958.91
2022-12-23T23:50:11.309Z,99962.28
2022-12-23T23:52:37.915Z,99956.13
2022-12-23T23:55:05.124Z,99957.81
2022-12-23T23:57:31.846Z,99952.50
2022-12-23T23:59:58.446Z,99949.88
